sensor_id;sensor_type;location;lat;lon;timestamp;P1;durP1;ratioP1;P2;durP2;ratioP2
69485;SDS011;56677;51.710;5.366;2023-08-24T05:17:07;4.90;;;2.92;;
69485;SDS011;56677;51.710;5.366;2023-08-24T05:19:32;5.47;;;2.77;;
69485;SDS011;56677;51.710;5.366;2023-08-24T05:21:57;5.10;;;2.95;;
69485;SDS011;56677;51.710;5.366;2023-08-24T05:24:22;4.32;;;3.08;;
69485;SDS011;56677;51.710;5.366;2023-08-24T05:26:47;5.40;;;3.08;;
69485;SDS011;56677;51.710;5.366;2023-08-24T05:29:12;6.68;;;2.85;;
69485;SDS011;56677;51.710;5.366;2023-08-24T05:31:37;5.65;;;2.75;;
69485;SDS011;56677;51.710;5.366;2023-08-24T05:34:02;5.53;;;2.55;;
69485;SDS011;56677;51.710;5.366;2023-08-24T05:36:28;4.68;;;2.63;;
69485;SDS011;56677;51.710;5.366;2023-08-24T05:38:53;5.35;;;2.40;;
69485;SDS011;56677;51.710;5.366;2023-08-24T05:41:18;4.70;;;2.80;;
69485;SDS011;56677;51.710;5.366;2023-08-24T05:43:43;4.60;;;2.55;;
69485;SDS011;56677;51.710;5.366;2023-08-24T05:46:08;5.60;;;2.65;;
69485;SDS011;56677;51.710;5.366;2023-08-24T05:48:33;5.63;;;2.88;;
69485;SDS011;56677;51.710;5.366;2023-08-24T05:50:58;6.10;;;3.13;;
69485;SDS011;56677;51.710;5.366;2023-08-24T05:53:23;6.43;;;2.45;;
69485;SDS011;56677;51.710;5.366;2023-08-24T05:55:49;4.25;;;2.60;;
69485;SDS011;56677;51.710;5.366;2023-08-24T05:58:14;6.20;;;2.00;;
69485;SDS011;56677;51.710;5.366;2023-08-24T06:00:39;5.55;;;2.65;;
69485;SDS011;56677;51.710;5.366;2023-08-24T06:03:04;5.40;;;2.10;;
69485;SDS011;56677;51.710;5.366;2023-08-24T06:05:29;4.57;;;2.27;;
69485;SDS011;56677;51.710;5.366;2023-08-24T06:07:55;4.32;;;2.22;;
69485;SDS011;56677;51.710;5.366;2023-08-24T06:10:20;8.30;;;2.67;;
69485;SDS011;56677;51.710;5.366;2023-08-24T06:12:45;4.47;;;2.25;;
69485;SDS011;56677;51.710;5.366;2023-08-24T06:15:10;5.75;;;2.50;;
69485;SDS011;56677;51.710;5.366;2023-08-24T06:17:35;6.67;;;2.20;;
69485;SDS011;56677;51.710;5.366;2023-08-24T06:20:01;5.07;;;2.37;;
69485;SDS011;56677;51.710;5.366;2023-08-24T06:22:26;4.22;;;2.30;;
69485;SDS011;56677;51.710;5.366;2023-08-24T06:24:51;4.15;;;2.10;;
69485;SDS011;56677;51.710;5.366;2023-08-24T06:27:16;5.68;;;1.95;;
69485;SDS011;56677;51.710;5.366;2023-08-24T06:32:25;4.32;;;1.98;;
69485;SDS011;56677;51.710;5.366;2023-08-24T06:34:50;3.58;;;1.85;;
69485;SDS011;56677;51.710;5.366;2023-08-24T06:37:15;5.30;;;2.30;;
69485;SDS011;56677;51.710;5.366;2023-08-24T06:39:40;6.85;;;2.60;;
69485;SDS011;56677;51.710;5.366;2023-08-24T06:42:06;4.78;;;2.22;;
69485;SDS011;56677;51.710;5.366;2023-08-24T06:44:31;5.50;;;2.10;;
69485;SDS011;56677;51.710;5.366;2023-08-24T06:46:56;5.00;;;2.30;;
69485;SDS011;56677;51.710;5.366;2023-08-24T06:49:21;5.07;;;2.38;;
69485;SDS011;56677;51.710;5.366;2023-08-24T06:51:46;5.07;;;2.10;;
69485;SDS011;56677;51.710;5.366;2023-08-24T06:54:11;6.80;;;2.55;;
69485;SDS011;56677;51.710;5.366;2023-08-24T06:56:36;7.55;;;2.90;;
69485;SDS011;56677;51.710;5.366;2023-08-24T06:59:01;7.75;;;2.75;;
69485;SDS011;56677;51.710;5.366;2023-08-24T07:01:27;7.70;;;3.10;;
69485;SDS011;56677;51.710;5.366;2023-08-24T07:03:52;6.43;;;2.80;;
69485;SDS011;56677;51.710;5.366;2023-08-24T07:06:17;4.82;;;2.22;;
69485;SDS011;56677;51.710;5.366;2023-08-24T07:08:42;4.72;;;2.50;;
69485;SDS011;56677;51.710;5.366;2023-08-24T07:11:07;4.83;;;2.60;;
69485;SDS011;56677;51.710;5.366;2023-08-24T07:13:32;5.03;;;2.50;;
69485;SDS011;56677;51.710;5.366;2023-08-24T07:15:57;5.15;;;2.40;;
69485;SDS011;56677;51.710;5.366;2023-08-24T07:18:23;4.47;;;2.47;;
69485;SDS011;56677;51.710;5.366;2023-08-24T07:20:48;5.93;;;2.47;;
69485;SDS011;56677;51.710;5.366;2023-08-24T07:23:13;5.22;;;3.10;;
69485;SDS011;56677;51.710;5.366;2023-08-24T07:25:38;4.85;;;2.58;;
69485;SDS011;56677;51.710;5.366;2023-08-24T07:28:03;5.63;;;2.40;;
69485;SDS011;56677;51.710;5.366;2023-08-24T07:30:28;6.57;;;2.60;;
69485;SDS011;56677;51.710;5.366;2023-08-24T07:32:54;6.90;;;2.63;;
69485;SDS011;56677;51.710;5.366;2023-08-24T07:35:19;4.18;;;2.35;;
69485;SDS011;56677;51.710;5.366;2023-08-24T07:37:44;7.33;;;2.63;;
69485;SDS011;56677;51.710;5.366;2023-08-24T07:40:09;3.53;;;2.10;;
69485;SDS011;56677;51.710;5.366;2023-08-24T07:42:44;4.93;;;2.33;;
69485;SDS011;56677;51.710;5.366;2023-08-24T07:45:09;5.00;;;2.55;;
69485;SDS011;56677;51.710;5.366;2023-08-24T07:47:35;6.25;;;2.28;;
69485;SDS011;56677;51.710;5.366;2023-08-24T07:50:00;4.28;;;2.60;;
69485;SDS011;56677;51.710;5.366;2023-08-24T07:52:25;7.17;;;2.50;;
69485;SDS011;56677;51.710;5.366;2023-08-24T07:54:50;4.25;;;2.45;;
69485;SDS011;56677;51.710;5.366;2023-08-24T07:57:15;3.85;;;2.17;;
69485;SDS011;56677;51.710;5.366;2023-08-24T07:59:40;3.63;;;2.42;;
69485;SDS011;56677;51.710;5.366;2023-08-24T08:02:05;5.47;;;2.58;;
69485;SDS011;56677;51.710;5.366;2023-08-24T08:04:30;4.30;;;2.28;;
69485;SDS011;56677;51.710;5.366;2023-08-24T08:06:55;4.75;;;2.15;;
69485;SDS011;56677;51.710;5.366;2023-08-24T08:09:21;4.18;;;2.45;;
69485;SDS011;56677;51.710;5.366;2023-08-24T08:11:46;6.70;;;2.30;;
69485;SDS011;56677;51.710;5.366;2023-08-24T08:14:11;4.00;;;2.30;;
69485;SDS011;56677;51.710;5.366;2023-08-24T08:16:36;3.73;;;2.60;;
69485;SDS011;56677;51.710;5.366;2023-08-24T08:19:01;6.53;;;2.63;;
69485;SDS011;56677;51.710;5.366;2023-08-24T08:21:26;6.83;;;2.93;;
69485;SDS011;56677;51.710;5.366;2023-08-24T08:23:51;4.93;;;2.35;;
69485;SDS011;56677;51.710;5.366;2023-08-24T08:26:16;4.32;;;2.50;;
69485;SDS011;56677;51.710;5.366;2023-08-24T08:28:42;5.57;;;2.30;;
69485;SDS011;56677;51.710;5.366;2023-08-24T08:31:07;5.40;;;2.03;;
69485;SDS011;56677;51.710;5.366;2023-08-24T08:33:32;4.87;;;2.33;;
69485;SDS011;56677;51.710;5.366;2023-08-24T08:35:57;5.60;;;2.50;;
69485;SDS011;56677;51.710;5.366;2023-08-24T08:38:22;4.82;;;2.80;;
69485;SDS011;56677;51.710;5.366;2023-08-24T08:40:47;4.65;;;2.50;;
69485;SDS011;56677;51.710;5.366;2023-08-24T08:43:14;3.50;;;2.25;;
69485;SDS011;56677;51.710;5.366;2023-08-24T08:45:39;5.68;;;2.42;;
69485;SDS011;56677;51.710;5.366;2023-08-24T08:48:04;5.63;;;2.58;;
69485;SDS011;56677;51.710;5.366;2023-08-24T08:50:31;4.90;;;2.80;;
69485;SDS011;56677;51.710;5.366;2023-08-24T08:52:57;5.20;;;2.50;;
69485;SDS011;56677;51.710;5.366;2023-08-24T08:55:22;4.53;;;2.73;;
69485;SDS011;56677;51.710;5.366;2023-08-24T08:57:47;4.47;;;2.33;;
69485;SDS011;56677;51.710;5.366;2023-08-24T09:00:13;5.43;;;2.80;;
69485;SDS011;56677;51.710;5.366;2023-08-24T09:02:39;6.38;;;2.90;;
69485;SDS011;56677;51.710;5.366;2023-08-24T09:05:07;3.83;;;2.63;;
69485;SDS011;56677;51.710;5.366;2023-08-24T09:07:32;4.83;;;2.50;;
69485;SDS011;56677;51.710;5.366;2023-08-24T09:09:59;5.10;;;2.67;;
69485;SDS011;56677;51.710;5.366;2023-08-24T09:12:24;4.53;;;2.80;;
69485;SDS011;56677;51.710;5.366;2023-08-24T09:14:49;5.07;;;2.57;;
69485;SDS011;56677;51.710;5.366;2023-08-24T09:17:21;4.38;;;2.40;;
69485;SDS011;56677;51.710;5.366;2023-08-24T09:19:46;6.83;;;3.00;;
69485;SDS011;56677;51.710;5.366;2023-08-24T09:22:14;5.05;;;2.80;;
69485;SDS011;56677;51.710;5.366;2023-08-24T09:24:39;5.83;;;3.00;;
69485;SDS011;56677;51.710;5.366;2023-08-24T09:27:14;6.88;;;2.70;;
69485;SDS011;56677;51.710;5.366;2023-08-24T09:29:40;4.57;;;2.63;;
69485;SDS011;56677;51.710;5.366;2023-08-24T09:32:07;5.25;;;2.50;;
69485;SDS011;56677;51.710;5.366;2023-08-24T09:34:32;4.30;;;2.75;;
69485;SDS011;56677;51.710;5.366;2023-08-24T09:36:57;4.70;;;2.60;;
69485;SDS011;56677;51.710;5.366;2023-08-24T09:39:23;5.33;;;2.70;;
69485;SDS011;56677;51.710;5.366;2023-08-24T09:41:49;5.30;;;3.00;;
69485;SDS011;56677;51.710;5.366;2023-08-24T09:44:14;5.33;;;2.90;;
69485;SDS011;56677;51.710;5.366;2023-08-24T09:46:39;4.72;;;2.78;;
69485;SDS011;56677;51.710;5.366;2023-08-24T09:49:05;4.83;;;2.63;;
69485;SDS011;56677;51.710;5.366;2023-08-24T09:51:30;5.13;;;3.20;;
69485;SDS011;56677;51.710;5.366;2023-08-24T09:53:57;4.43;;;2.88;;
69485;SDS011;56677;51.710;5.366;2023-08-24T09:56:23;6.80;;;3.40;;
69485;SDS011;56677;51.710;5.366;2023-08-24T09:58:50;5.40;;;2.88;;
69485;SDS011;56677;51.710;5.366;2023-08-24T10:01:16;5.82;;;2.92;;
69485;SDS011;56677;51.710;5.366;2023-08-24T10:03:42;5.13;;;2.97;;
69485;SDS011;56677;51.710;5.366;2023-08-24T10:06:08;4.30;;;2.90;;
69485;SDS011;56677;51.710;5.366;2023-08-24T10:08:36;5.43;;;3.00;;
69485;SDS011;56677;51.710;5.366;2023-08-24T10:11:01;5.55;;;2.95;;
69485;SDS011;56677;51.710;5.366;2023-08-24T10:13:33;6.32;;;2.72;;
69485;SDS011;56677;51.710;5.366;2023-08-24T10:16:00;4.53;;;2.70;;
69485;SDS011;56677;51.710;5.366;2023-08-24T10:18:25;4.13;;;2.35;;
69485;SDS011;56677;51.710;5.366;2023-08-24T10:20:51;5.40;;;2.33;;
69485;SDS011;56677;51.710;5.366;2023-08-24T10:23:17;3.97;;;2.60;;
69485;SDS011;56677;51.710;5.366;2023-08-24T10:25:44;5.22;;;2.70;;
69485;SDS011;56677;51.710;5.366;2023-08-24T10:28:10;5.00;;;2.85;;
69485;SDS011;56677;51.710;5.366;2023-08-24T10:30:36;4.30;;;2.70;;
69485;SDS011;56677;51.710;5.366;2023-08-24T10:33:01;5.93;;;2.60;;
69485;SDS011;56677;51.710;5.366;2023-08-24T10:35:26;3.90;;;2.57;;
69485;SDS011;56677;51.710;5.366;2023-08-24T10:37:52;4.83;;;3.10;;
69485;SDS011;56677;51.710;5.366;2023-08-24T10:40:30;5.93;;;3.10;;
69485;SDS011;56677;51.710;5.366;2023-08-24T10:42:55;5.65;;;2.97;;
69485;SDS011;56677;51.710;5.366;2023-08-24T10:45:22;5.85;;;2.38;;
69485;SDS011;56677;51.710;5.366;2023-08-24T10:47:47;4.68;;;2.88;;
69485;SDS011;56677;51.710;5.366;2023-08-24T10:50:16;6.25;;;2.95;;
69485;SDS011;56677;51.710;5.366;2023-08-24T10:52:44;4.80;;;2.90;;
69485;SDS011;56677;51.710;5.366;2023-08-24T10:55:22;6.10;;;3.13;;
69485;SDS011;56677;51.710;5.366;2023-08-24T10:57:55;5.47;;;2.67;;
69485;SDS011;56677;51.710;5.366;2023-08-24T11:00:20;4.22;;;2.53;;
69485;SDS011;56677;51.710;5.366;2023-08-24T11:02:46;6.90;;;2.90;;
69485;SDS011;56677;51.710;5.366;2023-08-24T11:05:15;5.55;;;2.55;;
69485;SDS011;56677;51.710;5.366;2023-08-24T11:13:07;7.10;;;3.50;;
69485;SDS011;56677;51.710;5.366;2023-08-24T11:15:33;5.45;;;3.17;;
69485;SDS011;56677;51.710;5.366;2023-08-24T11:20:45;4.85;;;2.90;;
69485;SDS011;56677;51.710;5.366;2023-08-24T11:23:11;5.40;;;3.05;;
69485;SDS011;56677;51.710;5.366;2023-08-24T11:25:37;5.57;;;2.90;;
69485;SDS011;56677;51.710;5.366;2023-08-24T11:28:03;4.53;;;2.53;;
69485;SDS011;56677;51.710;5.366;2023-08-24T11:30:28;5.40;;;3.33;;
69485;SDS011;56677;51.710;5.366;2023-08-24T11:32:54;6.78;;;2.80;;
69485;SDS011;56677;51.710;5.366;2023-08-24T11:35:19;5.00;;;2.77;;
69485;SDS011;56677;51.710;5.366;2023-08-24T11:37:44;5.53;;;3.25;;
69485;SDS011;56677;51.710;5.366;2023-08-24T11:40:16;5.90;;;3.37;;
69485;SDS011;56677;51.710;5.366;2023-08-24T11:42:41;8.32;;;2.97;;
69485;SDS011;56677;51.710;5.366;2023-08-24T11:45:10;5.82;;;3.40;;
69485;SDS011;56677;51.710;5.366;2023-08-24T11:47:36;5.70;;;3.25;;
69485;SDS011;56677;51.710;5.366;2023-08-24T11:50:01;6.43;;;3.10;;
69485;SDS011;56677;51.710;5.366;2023-08-24T11:52:26;5.95;;;3.20;;
69485;SDS011;56677;51.710;5.366;2023-08-24T11:54:51;5.10;;;2.90;;
69485;SDS011;56677;51.710;5.366;2023-08-24T11:57:16;4.80;;;2.80;;
69485;SDS011;56677;51.710;5.366;2023-08-24T11:59:41;5.00;;;2.90;;
69485;SDS011;56677;51.710;5.366;2023-08-24T12:02:08;5.00;;;3.00;;
69485;SDS011;56677;51.710;5.366;2023-08-24T12:04:42;5.07;;;2.90;;
69485;SDS011;56677;51.710;5.366;2023-08-24T12:07:13;7.22;;;3.03;;
69485;SDS011;56677;51.710;5.366;2023-08-24T12:09:40;6.27;;;3.17;;
69485;SDS011;56677;51.710;5.366;2023-08-24T12:12:05;6.43;;;3.28;;
69485;SDS011;56677;51.710;5.366;2023-08-24T12:14:39;7.27;;;2.73;;
69485;SDS011;56677;51.710;5.366;2023-08-24T12:17:08;6.00;;;2.63;;
69485;SDS011;56677;51.710;5.366;2023-08-24T12:19:33;3.77;;;2.40;;
69485;SDS011;56677;51.710;5.366;2023-08-24T12:21:59;4.78;;;2.75;;
69485;SDS011;56677;51.710;5.366;2023-08-24T12:24:24;6.15;;;2.95;;
69485;SDS011;56677;51.710;5.366;2023-08-24T12:26:56;7.65;;;2.78;;
69485;SDS011;56677;51.710;5.366;2023-08-24T12:29:21;5.05;;;2.60;;
69485;SDS011;56677;51.710;5.366;2023-08-24T12:31:46;5.50;;;2.80;;
69485;SDS011;56677;51.710;5.366;2023-08-24T12:34:13;4.93;;;2.83;;
69485;SDS011;56677;51.710;5.366;2023-08-24T12:36:39;8.87;;;2.87;;
69485;SDS011;56677;51.710;5.366;2023-08-24T12:39:04;6.57;;;2.83;;
69485;SDS011;56677;51.710;5.366;2023-08-24T12:41:30;5.60;;;2.88;;
69485;SDS011;56677;51.710;5.366;2023-08-24T12:43:55;6.63;;;3.10;;
69485;SDS011;56677;51.710;5.366;2023-08-24T12:46:20;9.43;;;3.00;;
69485;SDS011;56677;51.710;5.366;2023-08-24T12:48:45;5.13;;;2.57;;
69485;SDS011;56677;51.710;5.366;2023-08-24T12:51:11;5.72;;;2.67;;
69485;SDS011;56677;51.710;5.366;2023-08-24T12:53:36;6.33;;;3.07;;
69485;SDS011;56677;51.710;5.366;2023-08-24T12:56:01;6.72;;;3.53;;
69485;SDS011;56677;51.710;5.366;2023-08-24T12:58:26;6.30;;;3.38;;
69485;SDS011;56677;51.710;5.366;2023-08-24T13:00:51;5.68;;;2.58;;
69485;SDS011;56677;51.710;5.366;2023-08-24T13:03:16;6.47;;;3.03;;
69485;SDS011;56677;51.710;5.366;2023-08-24T13:05:41;4.80;;;2.80;;
69485;SDS011;56677;51.710;5.366;2023-08-24T13:08:06;5.00;;;3.00;;
69485;SDS011;56677;51.710;5.366;2023-08-24T13:10:32;9.23;;;3.40;;
69485;SDS011;56677;51.710;5.366;2023-08-24T13:12:57;6.68;;;2.92;;
69485;SDS011;56677;51.710;5.366;2023-08-24T13:15:22;6.72;;;3.10;;
69485;SDS011;56677;51.710;5.366;2023-08-24T13:17:47;7.43;;;3.17;;
69485;SDS011;56677;51.710;5.366;2023-08-24T13:20:13;7.60;;;3.65;;
69485;SDS011;56677;51.710;5.366;2023-08-24T13:22:38;5.05;;;3.03;;
69485;SDS011;56677;51.710;5.366;2023-08-24T13:25:03;9.40;;;3.80;;
69485;SDS011;56677;51.710;5.366;2023-08-24T13:27:28;6.03;;;3.30;;
69485;SDS011;56677;51.710;5.366;2023-08-24T13:29:53;5.80;;;3.55;;
69485;SDS011;56677;51.710;5.366;2023-08-24T13:32:18;5.70;;;3.30;;
69485;SDS011;56677;51.710;5.366;2023-08-24T13:34:43;6.37;;;3.60;;
69485;SDS011;56677;51.710;5.366;2023-08-24T13:37:09;10.45;;;3.33;;
69485;SDS011;56677;51.710;5.366;2023-08-24T13:39:34;5.90;;;3.53;;
69485;SDS011;56677;51.710;5.366;2023-08-24T13:41:59;6.55;;;3.70;;
69485;SDS011;56677;51.710;5.366;2023-08-24T13:44:24;6.10;;;3.23;;
69485;SDS011;56677;51.710;5.366;2023-08-24T13:46:50;7.70;;;3.40;;
69485;SDS011;56677;51.710;5.366;2023-08-24T13:49:15;6.30;;;3.53;;
69485;SDS011;56677;51.710;5.366;2023-08-24T13:51:40;6.32;;;3.38;;
69485;SDS011;56677;51.710;5.366;2023-08-24T13:54:13;8.00;;;3.67;;
69485;SDS011;56677;51.710;5.366;2023-08-24T13:56:38;5.78;;;3.50;;
69485;SDS011;56677;51.710;5.366;2023-08-24T13:59:03;6.03;;;3.28;;
69485;SDS011;56677;51.710;5.366;2023-08-24T14:01:28;7.10;;;3.80;;
69485;SDS011;56677;51.710;5.366;2023-08-24T14:03:53;6.18;;;3.50;;
69485;SDS011;56677;51.710;5.366;2023-08-24T14:06:18;7.22;;;3.38;;
69485;SDS011;56677;51.710;5.366;2023-08-24T14:08:43;6.57;;;3.33;;
69485;SDS011;56677;51.710;5.366;2023-08-24T14:11:09;5.30;;;3.30;;
69485;SDS011;56677;51.710;5.366;2023-08-24T14:13:34;5.40;;;3.13;;
69485;SDS011;56677;51.710;5.366;2023-08-24T14:15:59;5.22;;;3.17;;
69485;SDS011;56677;51.710;5.366;2023-08-24T14:18:24;7.93;;;3.70;;
69485;SDS011;56677;51.710;5.366;2023-08-24T14:20:49;5.38;;;3.58;;
69485;SDS011;56677;51.710;5.366;2023-08-24T14:23:16;7.00;;;3.72;;
69485;SDS011;56677;51.710;5.366;2023-08-24T14:25:41;6.65;;;3.40;;
69485;SDS011;56677;51.710;5.366;2023-08-24T14:28:06;5.93;;;3.28;;
69485;SDS011;56677;51.710;5.366;2023-08-24T14:30:31;6.45;;;3.50;;
69485;SDS011;56677;51.710;5.366;2023-08-24T14:32:56;5.78;;;3.60;;
69485;SDS011;56677;51.710;5.366;2023-08-24T14:35:21;7.10;;;3.97;;
69485;SDS011;56677;51.710;5.366;2023-08-24T14:37:46;5.63;;;3.00;;
69485;SDS011;56677;51.710;5.366;2023-08-24T14:40:11;4.60;;;3.03;;
69485;SDS011;56677;51.710;5.366;2023-08-24T14:42:37;5.80;;;3.30;;
69485;SDS011;56677;51.710;5.366;2023-08-24T14:45:02;7.88;;;3.28;;
69485;SDS011;56677;51.710;5.366;2023-08-24T14:47:27;6.93;;;3.67;;
69485;SDS011;56677;51.710;5.366;2023-08-24T14:49:52;7.38;;;3.20;;
69485;SDS011;56677;51.710;5.366;2023-08-24T14:52:17;6.57;;;3.20;;
69485;SDS011;56677;51.710;5.366;2023-08-24T14:54:42;6.28;;;3.00;;
69485;SDS011;56677;51.710;5.366;2023-08-24T14:57:07;5.87;;;3.50;;
69485;SDS011;56677;51.710;5.366;2023-08-24T14:59:33;4.97;;;2.90;;
69485;SDS011;56677;51.710;5.366;2023-08-24T15:01:58;6.32;;;2.88;;
69485;SDS011;56677;51.710;5.366;2023-08-24T15:04:23;7.17;;;3.13;;
69485;SDS011;56677;51.710;5.366;2023-08-24T15:06:48;7.75;;;3.22;;
69485;SDS011;56677;51.710;5.366;2023-08-24T15:09:13;6.38;;;3.13;;
69485;SDS011;56677;51.710;5.366;2023-08-24T15:11:38;7.82;;;3.30;;
69485;SDS011;56677;51.710;5.366;2023-08-24T15:14:03;7.70;;;2.80;;
69485;SDS011;56677;51.710;5.366;2023-08-24T15:16:29;6.60;;;3.50;;
69485;SDS011;56677;51.710;5.366;2023-08-24T15:18:54;11.88;;;3.10;;
69485;SDS011;56677;51.710;5.366;2023-08-24T15:21:19;6.60;;;3.40;;
69485;SDS011;56677;51.710;5.366;2023-08-24T15:23:44;5.97;;;3.08;;
69485;SDS011;56677;51.710;5.366;2023-08-24T15:26:09;7.80;;;3.20;;
69485;SDS011;56677;51.710;5.366;2023-08-24T15:31:22;7.72;;;3.00;;
69485;SDS011;56677;51.710;5.366;2023-08-24T15:33:48;9.53;;;3.37;;
69485;SDS011;56677;51.710;5.366;2023-08-24T15:36:13;5.30;;;3.08;;
69485;SDS011;56677;51.710;5.366;2023-08-24T15:38:38;8.43;;;2.85;;
69485;SDS011;56677;51.710;5.366;2023-08-24T15:41:03;5.78;;;2.85;;
69485;SDS011;56677;51.710;5.366;2023-08-24T15:43:28;4.75;;;2.80;;
69485;SDS011;56677;51.710;5.366;2023-08-24T15:45:53;8.50;;;3.00;;
69485;SDS011;56677;51.710;5.366;2023-08-24T15:48:18;6.20;;;3.00;;
69485;SDS011;56677;51.710;5.366;2023-08-24T15:50:43;7.55;;;3.10;;
69485;SDS011;56677;51.710;5.366;2023-08-24T15:53:09;5.55;;;2.80;;
69485;SDS011;56677;51.710;5.366;2023-08-24T15:55:34;6.70;;;3.00;;
69485;SDS011;56677;51.710;5.366;2023-08-24T15:58:02;8.35;;;2.60;;
69485;SDS011;56677;51.710;5.366;2023-08-24T16:00:27;6.90;;;2.78;;
69485;SDS011;56677;51.710;5.366;2023-08-24T16:02:53;7.03;;;3.10;;
69485;SDS011;56677;51.710;5.366;2023-08-24T16:05:18;6.38;;;2.70;;
69485;SDS011;56677;51.710;5.366;2023-08-24T16:07:43;5.10;;;3.10;;
69485;SDS011;56677;51.710;5.366;2023-08-24T16:10:08;7.47;;;3.22;;
69485;SDS011;56677;51.710;5.366;2023-08-24T16:12:33;4.07;;;2.70;;
69485;SDS011;56677;51.710;5.366;2023-08-24T16:14:59;8.17;;;2.80;;
69485;SDS011;56677;51.710;5.366;2023-08-24T16:17:24;5.25;;;2.67;;
69485;SDS011;56677;51.710;5.366;2023-08-24T16:19:49;8.70;;;2.97;;
69485;SDS011;56677;51.710;5.366;2023-08-24T16:22:14;6.82;;;2.88;;
69485;SDS011;56677;51.710;5.366;2023-08-24T16:24:39;8.02;;;2.95;;
69485;SDS011;56677;51.710;5.366;2023-08-24T16:27:04;4.90;;;2.70;;
69485;SDS011;56677;51.710;5.366;2023-08-24T16:29:29;5.17;;;2.53;;
69485;SDS011;56677;51.710;5.366;2023-08-24T16:31:54;6.28;;;3.00;;
69485;SDS011;56677;51.710;5.366;2023-08-24T16:34:19;9.68;;;3.25;;
69485;SDS011;56677;51.710;5.366;2023-08-24T16:36:45;4.82;;;2.83;;
69485;SDS011;56677;51.710;5.366;2023-08-24T16:39:10;5.97;;;3.10;;
69485;SDS011;56677;51.710;5.366;2023-08-24T16:41:35;5.68;;;2.60;;
69485;SDS011;56677;51.710;5.366;2023-08-24T16:44:00;5.65;;;2.95;;
69485;SDS011;56677;51.710;5.366;2023-08-24T16:46:25;5.50;;;2.90;;
69485;SDS011;56677;51.710;5.366;2023-08-24T16:48:50;6.50;;;3.00;;
69485;SDS011;56677;51.710;5.366;2023-08-24T16:51:15;9.40;;;2.93;;
69485;SDS011;56677;51.710;5.366;2023-08-24T16:53:40;5.90;;;2.63;;
69485;SDS011;56677;51.710;5.366;2023-08-24T16:56:06;5.75;;;2.58;;
69485;SDS011;56677;51.710;5.366;2023-08-24T16:58:31;7.40;;;2.70;;
69485;SDS011;56677;51.710;5.366;2023-08-24T17:01:00;6.57;;;2.92;;
69485;SDS011;56677;51.710;5.366;2023-08-24T17:03:28;5.30;;;3.00;;
69485;SDS011;56677;51.710;5.366;2023-08-24T17:05:53;6.43;;;2.90;;
69485;SDS011;56677;51.710;5.366;2023-08-24T17:08:18;7.22;;;3.10;;
69485;SDS011;56677;51.710;5.366;2023-08-24T17:10:43;5.90;;;2.60;;
69485;SDS011;56677;51.710;5.366;2023-08-24T17:13:08;6.30;;;2.25;;
69485;SDS011;56677;51.710;5.366;2023-08-24T17:15:33;5.60;;;2.60;;
69485;SDS011;56677;51.710;5.366;2023-08-24T17:17:58;7.60;;;3.03;;
69485;SDS011;56677;51.710;5.366;2023-08-24T17:20:23;7.05;;;2.60;;
69485;SDS011;56677;51.710;5.366;2023-08-24T17:22:49;6.32;;;2.78;;
69485;SDS011;56677;51.710;5.366;2023-08-24T17:25:14;6.05;;;2.83;;
69485;SDS011;56677;51.710;5.366;2023-08-24T17:27:40;4.13;;;2.40;;
69485;SDS011;56677;51.710;5.366;2023-08-24T17:30:05;6.13;;;2.07;;
69485;SDS011;56677;51.710;5.366;2023-08-24T17:32:31;4.38;;;2.40;;
69485;SDS011;56677;51.710;5.366;2023-08-24T17:34:56;4.63;;;2.43;;
69485;SDS011;56677;51.710;5.366;2023-08-24T17:37:21;4.28;;;2.42;;
69485;SDS011;56677;51.710;5.366;2023-08-24T17:39:46;7.13;;;2.25;;
69485;SDS011;56677;51.710;5.366;2023-08-24T17:42:12;4.65;;;1.95;;
69485;SDS011;56677;51.710;5.366;2023-08-24T17:44:37;8.40;;;2.20;;
69485;SDS011;56677;51.710;5.366;2023-08-24T17:47:02;3.83;;;2.13;;
69485;SDS011;56677;51.710;5.366;2023-08-24T17:49:27;6.10;;;2.88;;
69485;SDS011;56677;51.710;5.366;2023-08-24T17:51:52;4.03;;;2.05;;
69485;SDS011;56677;51.710;5.366;2023-08-24T17:54:17;3.63;;;2.25;;
69485;SDS011;56677;51.710;5.366;2023-08-24T17:56:43;5.60;;;2.38;;
69485;SDS011;56677;51.710;5.366;2023-08-24T17:59:08;5.43;;;2.20;;
69485;SDS011;56677;51.710;5.366;2023-08-24T18:01:33;4.30;;;2.15;;
69485;SDS011;56677;51.710;5.366;2023-08-24T18:03:58;4.03;;;1.70;;
69485;SDS011;56677;51.710;5.366;2023-08-24T18:06:23;4.77;;;1.63;;
69485;SDS011;56677;51.710;5.366;2023-08-24T18:08:48;3.93;;;2.20;;
69485;SDS011;56677;51.710;5.366;2023-08-24T18:11:13;7.33;;;2.07;;
69485;SDS011;56677;51.710;5.366;2023-08-24T18:13:39;4.70;;;2.10;;
69485;SDS011;56677;51.710;5.366;2023-08-24T18:16:04;5.23;;;2.07;;
69485;SDS011;56677;51.710;5.366;2023-08-24T18:18:29;4.65;;;2.08;;
69485;SDS011;56677;51.710;5.366;2023-08-24T18:20:54;5.32;;;2.47;;
69485;SDS011;56677;51.710;5.366;2023-08-24T18:23:19;5.72;;;2.15;;
69485;SDS011;56677;51.710;5.366;2023-08-24T18:25:44;4.13;;;1.73;;
69485;SDS011;56677;51.710;5.366;2023-08-24T18:28:09;6.20;;;2.33;;
69485;SDS011;56677;51.710;5.366;2023-08-24T18:30:34;5.85;;;2.15;;
69485;SDS011;56677;51.710;5.366;2023-08-24T18:32:59;7.95;;;2.65;;
69485;SDS011;56677;51.710;5.366;2023-08-24T18:35:25;6.30;;;1.95;;
69485;SDS011;56677;51.710;5.366;2023-08-24T18:37:50;6.53;;;2.10;;
69485;SDS011;56677;51.710;5.366;2023-08-24T18:40:15;6.30;;;2.30;;
69485;SDS011;56677;51.710;5.366;2023-08-24T18:42:40;5.27;;;2.07;;
69485;SDS011;56677;51.710;5.366;2023-08-24T18:45:05;5.13;;;1.92;;
69485;SDS011;56677;51.710;5.366;2023-08-24T18:47:31;4.80;;;1.80;;
69485;SDS011;56677;51.710;5.366;2023-08-24T18:49:56;6.10;;;2.37;;
69485;SDS011;56677;51.710;5.366;2023-08-24T18:52:21;4.28;;;1.70;;
69485;SDS011;56677;51.710;5.366;2023-08-24T18:54:46;5.70;;;2.17;;
69485;SDS011;56677;51.710;5.366;2023-08-24T18:57:11;4.47;;;1.90;;
69485;SDS011;56677;51.710;5.366;2023-08-24T18:59:36;4.50;;;1.80;;
69485;SDS011;56677;51.710;5.366;2023-08-24T19:02:01;4.25;;;2.00;;
69485;SDS011;56677;51.710;5.366;2023-08-24T19:04:26;3.92;;;1.75;;
69485;SDS011;56677;51.710;5.366;2023-08-24T19:06:52;5.22;;;2.20;;
69485;SDS011;56677;51.710;5.366;2023-08-24T19:09:17;4.05;;;2.03;;
69485;SDS011;56677;51.710;5.366;2023-08-24T19:11:42;4.45;;;1.98;;
69485;SDS011;56677;51.710;5.366;2023-08-24T19:14:07;4.32;;;2.15;;
69485;SDS011;56677;51.710;5.366;2023-08-24T19:16:32;4.80;;;2.07;;
69485;SDS011;56677;51.710;5.366;2023-08-24T19:18:57;3.35;;;1.85;;
69485;SDS011;56677;51.710;5.366;2023-08-24T19:21:22;4.03;;;1.98;;
69485;SDS011;56677;51.710;5.366;2023-08-24T19:23:47;6.80;;;2.33;;
69485;SDS011;56677;51.710;5.366;2023-08-24T19:26:12;4.10;;;2.50;;
69485;SDS011;56677;51.710;5.366;2023-08-24T19:28:37;7.22;;;2.28;;
69485;SDS011;56677;51.710;5.366;2023-08-24T19:31:03;4.60;;;2.00;;
69485;SDS011;56677;51.710;5.366;2023-08-24T19:33:28;4.93;;;2.22;;
69485;SDS011;56677;51.710;5.366;2023-08-24T19:35:54;5.73;;;2.47;;
69485;SDS011;56677;51.710;5.366;2023-08-24T19:38:19;4.37;;;2.03;;
69485;SDS011;56677;51.710;5.366;2023-08-24T19:40:44;4.07;;;2.20;;
69485;SDS011;56677;51.710;5.366;2023-08-24T19:43:10;5.15;;;1.90;;
69485;SDS011;56677;51.710;5.366;2023-08-24T19:45:35;5.53;;;2.60;;
69485;SDS011;56677;51.710;5.366;2023-08-24T19:48:00;3.97;;;1.97;;
69485;SDS011;56677;51.710;5.366;2023-08-24T19:50:28;4.93;;;2.27;;
69485;SDS011;56677;51.710;5.366;2023-08-24T19:52:54;5.13;;;1.80;;
69485;SDS011;56677;51.710;5.366;2023-08-24T19:55:19;4.50;;;2.00;;
69485;SDS011;56677;51.710;5.366;2023-08-24T19:57:45;3.80;;;2.00;;
69485;SDS011;56677;51.710;5.366;2023-08-24T20:00:10;5.03;;;1.80;;
69485;SDS011;56677;51.710;5.366;2023-08-24T20:02:35;3.83;;;1.80;;
69485;SDS011;56677;51.710;5.366;2023-08-24T20:05:00;4.10;;;2.00;;
69485;SDS011;56677;51.710;5.366;2023-08-24T20:07:25;4.57;;;1.70;;